createdAt,value
2022-09-07T00:00:56.494Z,16.02
2022-09-07T00:06:00.113Z,15.91
2022-09-07T00:11:05.770Z,15.97
2022-09-07T00:16:12.715Z,15.98
2022-09-07T00:21:17.978Z,16.31
2022-09-07T00:26:23.446Z,16.30
2022-09-07T00:31:29.862Z,16.71
2022-09-07T00:36:33.518Z,17.59
2022-09-07T00:41:37.131Z,17.96
2022-09-07T00:46:42.378Z,18.86
2022-09-07T00:51:51.558Z,19.25
2022-09-07T00:56:55.201Z,19.37
2022-09-07T01:02:00.941Z,19.44
2022-09-07T01:07:05.229Z,20.28
2022-09-07T01:12:09.593Z,20.05
2022-09-07T01:17:22.617Z,20.96
2022-09-07T01:22:52.731Z,20.83
2022-09-07T01:28:10.726Z,21.07
2022-09-07T01:33:33.393Z,22.16
2022-09-07T01:38:41.853Z,22.45
2022-09-07T01:43:54.006Z,22.65
2022-09-07T01:49:03.425Z,22.41
2022-09-07T01:54:11.556Z,22.31
2022-09-07T01:59:23.922Z,23.62
2022-09-07T02:04:36.110Z,23.92
2022-09-07T02:09:47.994Z,25.32
2022-09-07T02:14:56.691Z,26.04
2022-09-07T02:20:09.954Z,26.63
2022-09-07T02:25:21.666Z,26.60
2022-09-07T02:30:26.947Z,27.18
2022-09-07T02:35:30.688Z,27.63
2022-09-07T02:40:33.549Z,28.63
2022-09-07T02:45:51.289Z,28.86
2022-09-07T02:51:09.638Z,29.68
2022-09-07T02:56:27.588Z,29.62
2022-09-07T03:01:40.418Z,28.27
2022-09-07T03:06:48.775Z,28.92
2022-09-07T03:11:52.632Z,30.13
2022-09-07T03:16:57.402Z,30.61
2022-09-07T03:22:01.218Z,30.44
2022-09-07T03:27:04.905Z,30.17
2022-09-07T03:32:11.447Z,30.53
2022-09-07T03:37:15.220Z,30.27
2022-09-07T03:42:18.817Z,30.46
2022-09-07T03:47:24.071Z,29.30
2022-09-07T03:52:27.683Z,31.04
2022-09-07T03:57:31.290Z,30.93
2022-09-07T04:02:36.564Z,31.66
2022-09-07T04:07:40.204Z,31.34
2022-09-07T04:12:43.761Z,31.71
2022-09-07T04:17:48.975Z,32.15
2022-09-07T04:22:54.293Z,32.12
2022-09-07T04:27:58.065Z,31.97
2022-09-07T04:33:03.798Z,31.71
2022-09-07T04:38:08.365Z,32.30
2022-09-07T04:43:11.951Z,32.49
2022-09-07T04:48:17.230Z,32.98
2022-09-07T04:53:20.837Z,33.00
2022-09-07T04:58:24.571Z,31.53
2022-09-07T05:03:30.199Z,32.91
2022-09-07T05:08:38.391Z,32.06
2022-09-07T05:13:42.226Z,31.38
2022-09-07T05:18:50.890Z,32.59
2022-09-07T05:23:56.069Z,32.56
2022-09-07T05:39:32.524Z,33.64
2022-09-07T05:49:48.494Z,34.27
2022-09-07T05:54:54.332Z,34.29
2022-09-07T06:00:00.207Z,34.56
2022-09-07T06:05:05.807Z,34.55
2022-09-07T06:15:34.131Z,34.54
2022-09-07T06:20:39.404Z,35.13
2022-09-07T06:25:49.878Z,35.95
2022-09-07T06:30:53.443Z,35.79
2022-09-07T06:36:00.343Z,36.67
2022-09-07T06:51:53.666Z,36.59
2022-09-07T06:56:57.234Z,36.35
2022-09-07T07:02:00.850Z,36.69
2022-09-07T07:07:06.135Z,36.33
2022-09-07T07:12:09.938Z,36.59
2022-09-07T07:17:13.689Z,37.19
2022-09-07T07:22:42.924Z,38.06
2022-09-07T07:27:41.733Z,38.38
2022-09-07T07:32:46.175Z,38.02
2022-09-07T07:43:17.020Z,37.63
2022-09-07T07:48:20.558Z,37.79
2022-09-07T07:53:42.287Z,37.78
2022-09-07T07:58:47.767Z,37.46
2022-09-07T08:03:51.343Z,37.42
2022-09-07T08:08:56.847Z,37.52
2022-09-07T08:14:00.404Z,38.19
2022-09-07T08:19:03.940Z,37.35
2022-09-07T08:24:10.494Z,39.23
2022-09-07T08:29:14.014Z,38.49
2022-09-07T08:34:17.976Z,37.65
2022-09-07T08:39:24.828Z,38.38
2022-09-07T08:44:32.995Z,39.63
2022-09-07T08:49:46.632Z,38.76
2022-09-07T08:55:02.126Z,39.71
2022-09-07T09:00:07.977Z,39.80
2022-09-07T09:05:25.436Z,40.27
2022-09-07T09:10:40.742Z,38.85
2022-09-07T09:15:49.718Z,39.80
2022-09-07T09:20:56.681Z,39.20
2022-09-07T09:26:08.380Z,39.42
2022-09-07T09:31:19.850Z,39.67
2022-09-07T09:36:33.174Z,39.89
2022-09-07T09:41:39.905Z,39.42
2022-09-07T09:47:29.535Z,40.03
2022-09-07T09:52:42.990Z,40.10
2022-09-07T10:08:55.827Z,40.97
2022-09-07T10:14:01.113Z,41.30
2022-09-07T10:19:04.692Z,40.98
2022-09-07T10:24:16.267Z,41.38
2022-09-07T10:29:28.869Z,41.29
2022-09-07T10:34:40.170Z,41.74
2022-09-07T10:39:46.528Z,41.54
2022-09-07T10:45:01.717Z,42.78
2022-09-07T10:50:24.480Z,42.21
2022-09-07T10:55:33.603Z,42.57
2022-09-07T11:00:58.089Z,42.77
2022-09-07T11:06:11.510Z,43.33
2022-09-07T11:12:00.627Z,43.37
2022-09-07T11:16:53.022Z,44.42
2022-09-07T11:22:01.624Z,44.29
2022-09-07T11:27:14.435Z,44.53
2022-09-07T11:32:23.600Z,45.10
2022-09-07T11:37:31.679Z,44.66
2022-09-07T11:42:43.596Z,45.26
2022-09-07T11:47:55.658Z,45.65
2022-09-07T11:53:04.564Z,45.75
2022-09-07T11:58:30.880Z,46.04
2022-09-07T12:04:14.631Z,45.60
2022-09-07T12:09:34.819Z,46.11
2022-09-07T12:14:46.330Z,46.10
2022-09-07T12:20:14.494Z,46.08
2022-09-07T12:25:19.645Z,45.53
2022-09-07T12:30:55.249Z,46.13
2022-09-07T12:36:01.245Z,46.65
2022-09-07T12:41:06.047Z,46.77
2022-09-07T12:46:20.543Z,47.28
2022-09-07T13:02:51.541Z,47.34
2022-09-07T13:08:30.085Z,47.64
2022-09-07T13:18:57.836Z,47.26
2022-09-07T13:24:47.701Z,48.74
2022-09-07T13:29:56.571Z,49.34
2022-09-07T13:35:14.117Z,49.79
2022-09-07T13:40:21.749Z,49.01
2022-09-07T13:45:32.414Z,49.03
2022-09-07T13:50:45.346Z,50.60
2022-09-07T13:55:57.556Z,48.90
2022-09-07T14:01:06.642Z,47.85
2022-09-07T14:06:33.945Z,47.99
2022-09-07T14:11:43.175Z,47.86
2022-09-07T14:16:50.500Z,47.22
2022-09-07T14:21:59.246Z,46.27
2022-09-07T14:27:03.803Z,46.09
2022-09-07T14:32:15.756Z,46.26
2022-09-07T14:37:21.430Z,45.49
2022-09-07T14:42:25.685Z,44.92
2022-09-07T14:47:33.341Z,43.74
2022-09-07T14:52:43.739Z,43.22
2022-09-07T14:58:25.178Z,42.34
2022-09-07T15:03:33.107Z,41.69
2022-09-07T15:08:39.529Z,42.46
2022-09-07T15:13:45.537Z,41.17
2022-09-07T15:18:55.917Z,39.87
2022-09-07T15:24:00.966Z,40.15
2022-09-07T15:29:12.073Z,39.21
2022-09-07T15:34:18.838Z,38.70
2022-09-07T15:39:25.278Z,37.68
2022-09-07T15:44:29.230Z,36.70
2022-09-07T15:49:34.522Z,36.23
2022-09-07T15:54:39.832Z,36.19
2022-09-07T15:59:43.586Z,34.27
2022-09-07T16:04:48.943Z,33.35
2022-09-07T16:09:52.737Z,33.32
2022-09-07T16:14:56.691Z,32.11
2022-09-07T16:20:02.487Z,32.12
2022-09-07T16:25:06.708Z,31.78
2022-09-07T16:30:09.952Z,30.96
2022-09-07T16:35:15.250Z,30.92
2022-09-07T16:40:18.812Z,29.78
2022-09-07T16:51:01.669Z,27.27
2022-09-07T16:56:07.766Z,28.03
2022-09-07T17:01:14.103Z,28.85
2022-09-07T17:06:20.953Z,28.42
2022-09-07T17:11:26.711Z,27.87
2022-09-07T17:16:32.616Z,28.06
2022-09-07T17:21:39.728Z,27.93
2022-09-07T17:26:43.676Z,28.32
2022-09-07T17:37:12.399Z,27.63
2022-09-07T17:42:16.923Z,27.25
2022-09-07T17:47:22.340Z,27.40
2022-09-07T17:52:27.847Z,27.32
2022-09-07T17:57:32.216Z,27.46
2022-09-07T18:02:35.739Z,27.84
2022-09-07T18:07:40.158Z,27.27
2022-09-07T18:12:44.421Z,27.50
2022-09-07T18:17:50.920Z,27.15
2022-09-07T18:22:57.758Z,26.38
2022-09-07T18:33:25.442Z,26.63
2022-09-07T18:38:31.041Z,25.71
2022-09-07T18:43:36.151Z,26.36
2022-09-07T18:48:40.391Z,25.82
2022-09-07T18:53:45.787Z,25.74
2022-09-07T18:58:49.619Z,26.16
2022-09-07T19:03:56.977Z,25.80
2022-09-07T19:09:02.183Z,25.11
2022-09-07T19:14:05.715Z,25.18
2022-09-07T19:19:10.923Z,24.96
2022-09-07T19:24:17.478Z,24.26
2022-09-07T19:29:21.042Z,24.30
2022-09-07T19:34:24.561Z,24.40
2022-09-07T19:39:30.150Z,24.45
2022-09-07T19:44:33.777Z,23.92
2022-09-07T19:49:37.327Z,23.55
2022-09-07T19:54:42.498Z,22.82
2022-09-07T19:59:46.001Z,22.94
2022-09-07T20:04:49.554Z,22.84
2022-09-07T20:09:55.649Z,22.75
2022-09-07T20:14:59.200Z,23.10
2022-09-07T20:20:03.002Z,22.70
2022-09-07T20:25:12.996Z,22.45
2022-09-07T20:30:16.943Z,22.52
2022-09-07T20:35:20.490Z,21.84
2022-09-07T20:40:25.763Z,22.03
2022-09-07T20:45:31.836Z,22.02
2022-09-07T20:50:35.636Z,22.15
2022-09-07T20:55:40.829Z,22.15
2022-09-07T21:00:50.658Z,22.28
2022-09-07T21:05:54.299Z,22.61
2022-09-07T21:10:59.482Z,22.15
2022-09-07T21:16:05.747Z,22.08
2022-09-07T21:21:24.454Z,22.17
2022-09-07T21:26:30.321Z,21.57
2022-09-07T21:31:34.476Z,22.10
2022-09-07T21:36:38.252Z,22.62
2022-09-07T21:41:43.743Z,22.61
2022-09-07T21:46:47.470Z,22.22
2022-09-07T21:51:50.999Z,22.64
2022-09-07T21:56:56.140Z,21.69
2022-09-07T22:01:59.730Z,21.97
2022-09-07T22:07:03.348Z,21.16
2022-09-07T22:12:08.917Z,20.88
2022-09-07T22:17:12.476Z,21.02
2022-09-07T22:22:16.047Z,20.94
2022-09-07T22:27:21.236Z,20.60
2022-09-07T22:32:24.852Z,20.67
2022-09-07T22:37:28.418Z,20.83
2022-09-07T22:42:33.674Z,22.90
2022-09-07T22:47:37.197Z,23.92
2022-09-07T22:52:40.768Z,23.87
2022-09-07T22:57:47.551Z,25.05
2022-09-07T23:02:51.106Z,24.64
2022-09-07T23:07:54.650Z,24.86
2022-09-07T23:12:59.811Z,23.60
2022-09-07T23:18:03.336Z,23.27
2022-09-07T23:23:07.829Z,23.83
2022-09-07T23:28:13.772Z,23.57
2022-09-07T23:33:17.383Z,24.08
2022-09-07T23:38:20.935Z,23.82
2022-09-07T23:43:27.526Z,24.52
2022-09-07T23:48:31.349Z,25.16
2022-09-07T23:53:35.077Z,26.05
2022-09-07T23:58:41.296Z,26.19
